This is the latest recevied weather packets stored in our database for station/object AI5YA-13. If no packets are shown the sender has not sent any weather packets the latest 1 day(s).
| Time | Temp. | Humidity | Pressure | Rain* | Wind** | Luminosity | Snow |
|---|---|---|---|---|---|---|---|
| 1836274571 | 26.11° C | 43% | 1018.5 hPa | 0 mm | 0 m/s | 0 W/m² | - |
| 1836274425 | 26.11° C | 44% | 1018.2 hPa | 0 mm | 0 m/s | 0 W/m² | - |
| 1836274270 | 26.11° C | 43% | 1018.8 hPa | 0 mm | 0 m/s | 0 W/m² | - |
| 1836274123 | 26.11° C | 43% | 1018.6 hPa | 0 mm | 0 m/s | 0 W/m² | - |
| 1836273969 | 26.11° C | 43% | 1018.8 hPa | 0 mm | 0 m/s | 0 W/m² | - |
| 1778048674 | 17.78° C | 58% | 1011.1 hPa | 0 mm | 0 m/s | 0 W/m² | - |
| 1778048370 | 17.78° C | 58% | 1011.1 hPa | 0 mm | 0 m/s | 0 W/m² | - |
| 1778048066 | 17.78° C | 59% | 1010.7 hPa | 0 mm | 0 m/s | 0 W/m² | - |
| 1778047765 | 17.78° C | 58% | 1010.8 hPa | 0 mm | 0 m/s | 0 W/m² | - |
| 1778047462 | 18.33° C | 56% | 1010.7 hPa | 0 mm | 0 m/s | 0 W/m² | - |
| 1778047159 | 17.78° C | 57% | 1010.7 hPa | 0 mm | 0 m/s | 0 W/m² | - |
| 1778046856 | 17.78° C | 57% | 1011 hPa | 0 mm | 0 m/s | 0 W/m² | - |
| 1778046553 | 17.78° C | 58% | 1010.7 hPa | 0 mm | 0 m/s | 0 W/m² | - |
| 1778046250 | 17.78° C | 57% | 1010.6 hPa | 0 mm | 0 m/s | 0 W/m² | - |
| 1778045946 | 18.33° C | 56% | 1010.4 hPa | 0 mm | 0 m/s | 0 W/m² | - |
| 1778045644 | 18.89° C | 54% | 1010.4 hPa | 0 mm | 0 m/s | 0 W/m² | - |
| 1778045342 | 18.89° C | 53% | 1010.8 hPa | 0 mm | 0 m/s | 0 W/m² | - |
| 1778045041 | 18.89° C | 52% | 1010.2 hPa | 0 mm | 0 m/s | 0 W/m² | - |
| 1778044738 | 18.89° C | 52% | 1010.4 hPa | 0 mm | 0 m/s | 0 W/m² | - |
| 1778044434 | 18.89° C | 53% | 1010.4 hPa | 0 mm | 0 m/s | 0 W/m² | - |
| 1778044131 | 18.89° C | 53% | 1010.2 hPa | 0 mm | 0 m/s | 0 W/m² | - |
| 1778043829 | 18.89° C | 53% | 1010.3 hPa | 0 mm | 0 m/s | 0 W/m² | - |
| 1778043526 | 18.89° C | 53% | 1010.2 hPa | 0 mm | 0 m/s | 0 W/m² | - |
| 1778043222 | 18.89° C | 51% | 1010.2 hPa | 0 mm | 0 m/s | 0 W/m² | - |
| 1778042919 | 20° C | 49% | 1010.7 hPa | 0 mm | 0 m/s | 0 W/m² | - |
* Rain latest hour (hover to see other rain measurements)
** Current wind speed in m/s (hover to see current wind gust speed)